createdAt,value
2023-03-01T00:00:51.963Z,2.16
2023-03-01T00:03:24.321Z,2.15
2023-03-01T00:05:56.339Z,2.13
2023-03-01T00:08:29.605Z,2.12
2023-03-01T00:11:15.864Z,2.11
2023-03-01T00:13:50.344Z,2.11
2023-03-01T00:16:27.180Z,2.09
2023-03-01T00:18:59.424Z,2.09
2023-03-01T00:21:31.652Z,2.05
2023-03-01T00:24:04.486Z,2.05
2023-03-01T00:26:36.495Z,2.04
2023-03-01T00:29:20.675Z,2.03
2023-03-01T00:31:52.910Z,2.00
2023-03-01T00:34:25.021Z,1.98
2023-03-01T00:37:06.340Z,1.96
2023-03-01T00:39:38.485Z,1.94
2023-03-01T00:42:10.469Z,1.91
2023-03-01T00:44:42.816Z,1.88
2023-03-01T00:47:15.109Z,1.85
2023-03-01T00:49:47.253Z,1.82
2023-03-01T00:52:19.244Z,1.81
2023-03-01T00:54:54.070Z,1.77
2023-03-01T00:57:28.437Z,1.76
2023-03-01T01:00:00.715Z,1.71
2023-03-01T01:02:35.118Z,1.70
2023-03-01T01:05:07.790Z,1.67
2023-03-01T01:07:40.159Z,1.57
2023-03-01T01:10:18.044Z,1.55
2023-03-01T01:12:50.131Z,1.54
2023-03-01T01:15:22.097Z,1.51
2023-03-01T01:17:54.320Z,1.44
2023-03-01T01:20:26.315Z,1.44
2023-03-01T01:22:58.331Z,1.44
2023-03-01T01:25:30.330Z,1.40
2023-03-01T01:28:02.350Z,1.37
2023-03-01T01:30:34.408Z,1.39
2023-03-01T01:33:06.420Z,1.38
2023-03-01T01:35:38.561Z,1.38
2023-03-01T01:38:10.550Z,1.36
2023-03-01T01:40:47.358Z,1.36
2023-03-01T01:43:28.662Z,1.34
2023-03-01T01:46:21.223Z,1.32
2023-03-01T01:49:16.249Z,1.30
2023-03-01T01:52:14.227Z,1.28
2023-03-01T01:55:23.010Z,1.28
2023-03-01T01:58:02.886Z,1.32
2023-03-01T02:00:35.322Z,1.32
2023-03-01T02:03:19.024Z,1.30
2023-03-01T02:06:05.520Z,1.32
2023-03-01T02:08:42.451Z,1.29
2023-03-01T02:11:18.175Z,1.29
2023-03-01T02:13:50.700Z,1.31
2023-03-01T02:16:23.134Z,1.33
2023-03-01T02:18:58.898Z,1.33
2023-03-01T02:21:42.783Z,1.35
2023-03-01T02:24:42.259Z,1.35
2023-03-01T02:27:14.485Z,1.32
2023-03-01T02:29:47.955Z,1.31
2023-03-01T02:32:26.267Z,1.31
2023-03-01T02:34:59.088Z,1.31
2023-03-01T02:37:32.158Z,1.34
2023-03-01T02:40:12.784Z,1.35
2023-03-01T02:42:58.279Z,1.34
2023-03-01T02:45:30.478Z,1.33
2023-03-01T02:48:02.539Z,1.31
2023-03-01T02:51:16.936Z,1.28
2023-03-01T02:54:25.945Z,1.27
2023-03-01T02:56:58.602Z,1.25
2023-03-01T02:59:40.495Z,1.24
2023-03-01T03:02:39.062Z,1.23
2023-03-01T03:05:18.072Z,1.22
2023-03-01T03:07:51.230Z,1.23
2023-03-01T03:10:32.635Z,1.24
2023-03-01T03:13:12.471Z,1.24
2023-03-01T03:15:44.947Z,1.23
2023-03-01T03:18:18.426Z,1.21
2023-03-01T03:20:54.092Z,1.29
2023-03-01T03:23:26.959Z,1.34
2023-03-01T03:25:58.965Z,1.37
2023-03-01T03:28:32.526Z,1.41
2023-03-01T03:31:08.523Z,1.39
2023-03-01T03:33:40.586Z,1.38
2023-03-01T03:36:25.280Z,1.30
2023-03-01T03:38:57.431Z,1.26
2023-03-01T03:41:29.484Z,1.26
2023-03-01T03:44:01.632Z,1.30
2023-03-01T03:46:33.942Z,1.21
2023-03-01T03:49:08.933Z,1.12
2023-03-01T03:51:40.984Z,1.03
2023-03-01T03:54:13.310Z,0.92
2023-03-01T03:56:45.398Z,0.90
2023-03-01T03:59:17.393Z,0.90
2023-03-01T04:01:49.508Z,0.83
2023-03-01T04:04:21.562Z,0.84
2023-03-01T04:06:56.366Z,0.85
2023-03-01T04:09:28.535Z,0.89
2023-03-01T04:12:01.717Z,0.84
2023-03-01T04:14:34.530Z,0.78
2023-03-01T04:17:06.536Z,0.69
2023-03-01T04:19:38.651Z,0.67
2023-03-01T04:22:12.520Z,0.67
2023-03-01T04:24:45.863Z,0.69
2023-03-01T04:27:18.060Z,0.68
2023-03-01T04:29:50.072Z,0.73
2023-03-01T04:32:25.098Z,0.75
2023-03-01T04:34:57.211Z,0.75
2023-03-01T04:37:29.264Z,0.81
2023-03-01T04:40:01.478Z,0.86
2023-03-01T04:42:33.825Z,0.89
2023-03-01T04:45:14.158Z,0.89
2023-03-01T04:47:47.699Z,0.91
2023-03-01T04:50:28.820Z,0.92
2023-03-01T04:53:04.020Z,0.93
2023-03-01T04:55:36.172Z,0.91
2023-03-01T04:58:08.175Z,0.93
2023-03-01T05:00:40.155Z,0.91
2023-03-01T05:03:19.240Z,0.91
2023-03-01T05:05:53.570Z,0.89
2023-03-01T05:08:25.675Z,0.89
2023-03-01T05:10:57.689Z,0.90
2023-03-01T05:13:30.528Z,0.92
2023-03-01T05:16:05.282Z,0.95
2023-03-01T05:18:37.317Z,0.95
2023-03-01T05:21:13.433Z,0.95
2023-03-01T05:23:46.441Z,0.97
2023-03-01T05:26:28.234Z,0.98
2023-03-01T05:29:01.128Z,0.99
2023-03-01T05:31:33.318Z,0.98
2023-03-01T05:34:05.869Z,0.99
2023-03-01T05:36:39.356Z,0.98
2023-03-01T05:39:11.400Z,0.97
2023-03-01T05:41:43.444Z,1.00
2023-03-01T05:44:15.578Z,1.01
2023-03-01T05:46:48.138Z,1.01
2023-03-01T05:49:20.561Z,1.03
2023-03-01T05:51:54.310Z,1.04
2023-03-01T05:54:29.782Z,1.04
2023-03-01T05:57:01.892Z,1.05
2023-03-01T05:59:34.101Z,1.03
2023-03-01T06:02:06.426Z,1.02
2023-03-01T06:04:38.739Z,0.98
2023-03-01T06:07:10.758Z,0.98
2023-03-01T06:09:43.007Z,0.94
2023-03-01T06:12:15.085Z,0.90
2023-03-01T06:14:48.772Z,0.82
2023-03-01T06:17:20.840Z,0.82
2023-03-01T06:19:52.984Z,0.81
2023-03-01T06:22:25.327Z,0.84
2023-03-01T06:24:58.671Z,0.86
2023-03-01T06:27:30.719Z,0.88
2023-03-01T06:30:03.836Z,0.92
2023-03-01T06:32:35.992Z,0.94
2023-03-01T06:35:13.621Z,0.96
2023-03-01T06:37:50.648Z,1.01
2023-03-01T06:40:26.606Z,1.05
2023-03-01T06:42:59.303Z,1.11
2023-03-01T06:45:31.354Z,1.13
2023-03-01T06:48:07.544Z,1.19
2023-03-01T06:50:39.876Z,1.24
2023-03-01T06:53:12.045Z,1.31
2023-03-01T06:55:44.045Z,1.42
2023-03-01T06:58:16.161Z,1.50
2023-03-01T07:00:48.229Z,1.61
2023-03-01T07:03:20.667Z,1.53
2023-03-01T07:05:56.535Z,1.61
2023-03-01T07:08:28.558Z,1.65
2023-03-01T07:11:05.575Z,1.78
2023-03-01T07:13:37.671Z,1.91
2023-03-01T07:16:10.338Z,1.97
2023-03-01T07:18:43.355Z,2.12
2023-03-01T07:21:17.620Z,2.26
2023-03-01T07:23:50.244Z,2.42
2023-03-01T07:26:24.628Z,2.53
2023-03-01T07:29:01.319Z,2.59
2023-03-01T07:31:33.645Z,2.65
2023-03-01T07:34:05.899Z,2.65
2023-03-01T07:36:38.894Z,2.69
2023-03-01T07:39:12.347Z,2.72
2023-03-01T07:41:44.428Z,2.81
2023-03-01T07:44:19.642Z,2.93
2023-03-01T07:46:53.489Z,3.08
2023-03-01T07:49:27.361Z,3.17
2023-03-01T07:51:59.550Z,3.31
2023-03-01T07:54:31.542Z,3.40
2023-03-01T07:57:03.671Z,3.47
2023-03-01T07:59:35.829Z,3.63
2023-03-01T08:02:08.070Z,3.75
2023-03-01T08:04:40.266Z,3.89
2023-03-01T08:07:12.281Z,4.05
2023-03-01T08:09:44.536Z,4.20
2023-03-01T08:12:18.081Z,4.38
2023-03-01T08:14:54.690Z,4.52
2023-03-01T08:17:29.853Z,4.54
2023-03-01T08:20:01.954Z,4.65
2023-03-01T08:22:34.160Z,4.90
2023-03-01T08:25:09.597Z,5.30
2023-03-01T08:27:41.712Z,5.63
2023-03-01T08:30:14.599Z,5.76
2023-03-01T08:32:46.957Z,5.75
2023-03-01T08:35:20.909Z,5.66
2023-03-01T08:37:53.343Z,5.76
2023-03-01T08:40:25.530Z,5.84
2023-03-01T08:43:02.099Z,5.85
2023-03-01T08:45:34.436Z,5.86
2023-03-01T08:48:08.881Z,5.80
2023-03-01T08:50:42.376Z,5.90
2023-03-01T08:53:14.719Z,6.05
2023-03-01T08:55:46.984Z,6.27
2023-03-01T08:58:19.119Z,6.35
2023-03-01T09:00:51.246Z,6.33
2023-03-01T09:03:25.052Z,6.21
2023-03-01T09:06:04.213Z,6.03
2023-03-01T09:08:39.084Z,5.94
2023-03-01T09:11:15.036Z,5.93
2023-03-01T09:13:48.643Z,5.90
2023-03-01T09:16:24.760Z,5.91
2023-03-01T09:18:56.963Z,5.98
2023-03-01T09:21:40.238Z,5.92
2023-03-01T09:24:16.616Z,5.84
2023-03-01T09:26:54.493Z,5.88
2023-03-01T09:29:27.119Z,5.94
2023-03-01T09:31:59.540Z,6.03
2023-03-01T09:34:32.420Z,6.21
2023-03-01T09:37:04.646Z,6.39
2023-03-01T09:39:37.410Z,6.58
2023-03-01T09:42:13.824Z,6.79
2023-03-01T09:44:51.706Z,6.94
2023-03-01T09:47:28.589Z,7.09
2023-03-01T09:50:20.396Z,7.20
2023-03-01T09:53:08.040Z,7.49
2023-03-01T09:55:57.218Z,7.69
2023-03-01T09:58:56.660Z,7.57
2023-03-01T10:01:43.318Z,7.28
2023-03-01T10:04:26.763Z,7.34
2023-03-01T10:07:10.508Z,7.46
2023-03-01T10:09:45.898Z,7.61
2023-03-01T10:12:29.135Z,7.52
2023-03-01T10:15:19.934Z,7.55
2023-03-01T10:17:58.680Z,7.58
2023-03-01T10:21:16.291Z,7.49
2023-03-01T10:23:54.403Z,7.62
2023-03-01T10:26:38.539Z,7.55
2023-03-01T10:29:13.383Z,7.56
2023-03-01T10:31:52.661Z,7.82
2023-03-01T10:34:48.883Z,8.13
2023-03-01T10:37:23.747Z,9.87
2023-03-01T10:40:11.990Z,12.94
2023-03-01T10:42:54.599Z,16.31
2023-03-01T10:45:37.962Z,19.10
2023-03-01T10:48:14.763Z,20.72
2023-03-01T10:50:50.593Z,21.73
2023-03-01T10:53:38.129Z,21.74
2023-03-01T10:56:14.485Z,22.23
2023-03-01T10:59:06.852Z,20.26
2023-03-01T11:01:38.892Z,17.93
2023-03-01T11:04:15.495Z,16.10
2023-03-01T11:07:01.360Z,14.32
2023-03-01T11:09:41.253Z,13.37
2023-03-01T11:12:18.387Z,12.73
2023-03-01T11:14:56.301Z,12.16
2023-03-01T11:17:39.010Z,12.28
2023-03-01T11:20:23.585Z,11.85
2023-03-01T11:23:02.898Z,11.72
2023-03-01T11:25:41.694Z,11.67
2023-03-01T11:28:20.347Z,11.34
2023-03-01T11:31:07.562Z,11.55
2023-03-01T11:34:06.718Z,11.58
2023-03-01T11:36:57.819Z,11.58
2023-03-01T11:39:43.758Z,11.55
2023-03-01T11:42:50.572Z,11.34
2023-03-01T11:45:25.993Z,11.30
2023-03-01T11:48:49.413Z,11.14
2023-03-01T11:52:18.555Z,10.61
2023-03-01T11:55:14.826Z,10.21
2023-03-01T11:58:26.161Z,9.94
2023-03-01T12:01:24.821Z,9.78
2023-03-01T12:04:57.107Z,9.94
2023-03-01T12:07:54.203Z,9.93
2023-03-01T12:11:05.223Z,9.84
2023-03-01T12:13:56.179Z,10.08
2023-03-01T12:16:55.611Z,10.24
2023-03-01T12:19:58.948Z,10.39
2023-03-01T12:22:44.781Z,10.45
2023-03-01T12:25:37.222Z,10.33
2023-03-01T12:28:31.653Z,10.32
2023-03-01T12:31:56.677Z,10.41
2023-03-01T12:34:51.144Z,10.33
2023-03-01T12:37:51.012Z,10.21
2023-03-01T12:40:39.671Z,9.85
2023-03-01T12:43:47.325Z,9.62
2023-03-01T12:46:53.804Z,9.34
2023-03-01T12:49:44.110Z,9.46
2023-03-01T12:52:40.115Z,9.65
2023-03-01T12:55:42.445Z,9.96
2023-03-01T12:58:34.151Z,9.95
2023-03-01T13:01:24.257Z,9.78
2023-03-01T13:04:30.735Z,9.73
2023-03-01T13:07:40.930Z,9.80
2023-03-01T13:10:19.752Z,9.66
2023-03-01T13:12:57.768Z,9.57
2023-03-01T13:15:35.893Z,9.61
2023-03-01T13:18:17.000Z,9.76
2023-03-01T13:20:51.993Z,9.95
2023-03-01T13:23:23.920Z,10.07
2023-03-01T13:26:02.619Z,9.97
2023-03-01T13:28:45.560Z,9.71
2023-03-01T13:31:20.503Z,9.56
2023-03-01T13:33:54.533Z,9.50
2023-03-01T13:36:33.734Z,9.47
2023-03-01T13:39:33.595Z,9.54
2023-03-01T13:42:34.297Z,9.54
2023-03-01T13:45:22.626Z,9.61
2023-03-01T13:47:59.686Z,9.73
2023-03-01T13:50:49.386Z,9.79
2023-03-01T13:53:26.592Z,9.85
2023-03-01T13:56:13.570Z,9.90
2023-03-01T13:59:01.189Z,9.88
2023-03-01T14:01:36.942Z,9.94
2023-03-01T14:04:28.101Z,10.00
2023-03-01T14:07:23.924Z,10.00
2023-03-01T14:10:01.169Z,9.93
2023-03-01T14:12:53.979Z,9.80
2023-03-01T14:15:37.305Z,9.89
2023-03-01T14:18:24.691Z,9.75
2023-03-01T14:20:56.792Z,9.77
2023-03-01T14:23:29.049Z,9.73
2023-03-01T14:26:01.228Z,9.76
2023-03-01T14:28:38.449Z,9.80
2023-03-01T14:31:29.351Z,9.97
2023-03-01T14:34:01.658Z,10.11
2023-03-01T14:36:35.642Z,10.19
2023-03-01T14:39:24.514Z,10.17
2023-03-01T14:42:00.620Z,10.19
2023-03-01T14:44:38.595Z,10.16
2023-03-01T14:47:23.956Z,10.11
2023-03-01T14:50:08.047Z,10.02
2023-03-01T14:52:43.907Z,9.84
2023-03-01T14:55:48.069Z,9.70
2023-03-01T14:58:25.837Z,9.63
2023-03-01T15:01:04.481Z,9.54
2023-03-01T15:03:44.084Z,9.44
2023-03-01T15:06:21.656Z,9.40
2023-03-01T15:08:55.921Z,9.40
2023-03-01T15:11:33.885Z,9.37
2023-03-01T15:14:29.575Z,9.18
2023-03-01T15:17:07.195Z,9.25
2023-03-01T15:19:39.424Z,9.33
2023-03-01T15:22:17.267Z,9.43
2023-03-01T15:24:51.240Z,9.53
2023-03-01T15:27:26.402Z,9.69
2023-03-01T15:30:03.146Z,9.78
2023-03-01T15:32:40.279Z,9.81
2023-03-01T15:35:58.198Z,9.69
2023-03-01T15:38:57.827Z,9.51
2023-03-01T15:41:34.184Z,9.37
2023-03-01T15:44:42.750Z,9.20
2023-03-01T15:47:32.690Z,9.10
2023-03-01T15:50:05.418Z,8.98
2023-03-01T15:52:43.477Z,8.89
2023-03-01T15:55:26.281Z,8.83
2023-03-01T15:58:25.215Z,8.80
2023-03-01T16:01:01.301Z,8.77
2023-03-01T16:03:34.402Z,8.72
2023-03-01T16:06:06.527Z,8.68
2023-03-01T16:08:39.754Z,8.67
2023-03-01T16:11:19.248Z,8.61
2023-03-01T16:13:51.320Z,8.56
2023-03-01T16:16:23.779Z,8.46
2023-03-01T16:18:56.175Z,8.42
2023-03-01T16:21:28.236Z,8.36
2023-03-01T16:24:00.260Z,8.31
2023-03-01T16:26:32.546Z,8.23
2023-03-01T16:29:05.431Z,8.21
2023-03-01T16:31:38.312Z,8.19
2023-03-01T16:34:10.942Z,8.12
2023-03-01T16:36:44.177Z,8.04
2023-03-01T16:39:17.374Z,7.99
2023-03-01T16:41:49.376Z,7.94
2023-03-01T16:44:21.348Z,7.88
2023-03-01T16:46:53.308Z,7.78
2023-03-01T16:49:25.245Z,7.75
2023-03-01T16:51:57.273Z,7.62
2023-03-01T16:54:29.453Z,7.58
2023-03-01T16:57:01.513Z,7.56
2023-03-01T16:59:33.810Z,7.49
2023-03-01T17:02:10.822Z,7.44
2023-03-01T17:04:42.879Z,7.37
2023-03-01T17:07:15.178Z,7.31
2023-03-01T17:09:47.400Z,7.26
2023-03-01T17:12:19.441Z,7.20
2023-03-01T17:14:51.732Z,7.15
2023-03-01T17:17:23.757Z,7.11
2023-03-01T17:19:55.766Z,7.09
2023-03-01T17:22:27.797Z,7.03
2023-03-01T17:25:00.120Z,6.96
2023-03-01T17:27:35.696Z,6.91
2023-03-01T17:30:13.228Z,6.88
2023-03-01T17:32:45.455Z,6.81
2023-03-01T17:35:17.698Z,6.80
2023-03-01T17:37:49.855Z,6.73
2023-03-01T17:40:21.955Z,6.71
2023-03-01T17:42:54.170Z,6.68
2023-03-01T17:45:26.271Z,6.64
2023-03-01T17:47:58.316Z,6.59
2023-03-01T17:50:30.378Z,6.60
2023-03-01T17:53:07.534Z,6.61
2023-03-01T17:55:41.852Z,6.51
2023-03-01T17:58:15.579Z,6.44
2023-03-01T18:00:47.723Z,6.39
2023-03-01T18:03:21.784Z,6.38
2023-03-01T18:05:53.797Z,6.34
2023-03-01T18:08:25.848Z,6.30
2023-03-01T18:11:01.080Z,6.24
2023-03-01T18:13:33.093Z,6.18
2023-03-01T18:16:12.136Z,6.13
2023-03-01T18:18:45.343Z,6.08
2023-03-01T18:21:17.539Z,5.98
2023-03-01T18:23:49.784Z,5.93
2023-03-01T18:26:25.110Z,5.88
2023-03-01T18:29:01.312Z,5.79
2023-03-01T18:31:33.997Z,5.73
2023-03-01T18:34:06.408Z,5.71
2023-03-01T18:36:39.533Z,5.63
2023-03-01T18:39:15.177Z,5.53
2023-03-01T18:41:47.222Z,5.44
2023-03-01T18:44:19.385Z,5.37
2023-03-01T18:46:53.016Z,5.32
2023-03-01T18:49:26.517Z,5.26
2023-03-01T18:51:58.557Z,5.22
2023-03-01T18:54:30.687Z,5.18
2023-03-01T18:57:02.691Z,5.16
2023-03-01T18:59:34.802Z,5.11
2023-03-01T19:02:07.012Z,5.03
2023-03-01T19:04:39.277Z,5.03
2023-03-01T19:07:12.590Z,4.93
2023-03-01T19:09:44.727Z,4.82
2023-03-01T19:12:16.770Z,4.75
2023-03-01T19:14:49.101Z,4.70
2023-03-01T19:17:30.568Z,4.72
2023-03-01T19:20:02.679Z,4.70
2023-03-01T19:22:34.741Z,4.71
2023-03-01T19:25:07.580Z,4.68
2023-03-01T19:27:39.835Z,4.65
2023-03-01T19:30:12.620Z,4.61
2023-03-01T19:32:44.678Z,4.56
2023-03-01T19:35:16.815Z,4.53
2023-03-01T19:37:48.767Z,4.59
2023-03-01T19:40:20.987Z,4.65
2023-03-01T19:42:53.067Z,4.61
2023-03-01T19:45:32.959Z,4.61
2023-03-01T19:48:06.158Z,4.42
2023-03-01T19:50:38.574Z,4.40
2023-03-01T19:53:10.658Z,4.42
2023-03-01T19:55:43.288Z,4.44
2023-03-01T19:58:15.386Z,4.49
2023-03-01T20:00:47.912Z,4.49
2023-03-01T20:03:19.939Z,4.46
2023-03-01T20:05:52.132Z,4.51
2023-03-01T20:08:25.404Z,4.53
2023-03-01T20:11:09.666Z,4.47
2023-03-01T20:13:42.139Z,4.50
2023-03-01T20:16:20.326Z,4.50
2023-03-01T20:18:53.695Z,4.50
2023-03-01T20:21:27.179Z,4.54
2023-03-01T20:24:00.241Z,4.48
2023-03-01T20:26:33.390Z,4.52
2023-03-01T20:29:08.401Z,4.47
2023-03-01T20:31:42.636Z,4.50
2023-03-01T20:34:14.944Z,4.54
2023-03-01T20:36:47.362Z,4.45
2023-03-01T20:39:19.504Z,4.40
2023-03-01T20:41:51.845Z,4.39
2023-03-01T20:44:24.072Z,4.40
2023-03-01T20:46:56.513Z,4.41
2023-03-01T20:49:29.111Z,4.43
2023-03-01T20:52:04.215Z,4.38
2023-03-01T20:54:36.592Z,4.44
2023-03-01T20:57:09.371Z,4.45
2023-03-01T20:59:41.468Z,4.47
2023-03-01T21:02:13.576Z,4.42
2023-03-01T21:04:45.570Z,4.42
2023-03-01T21:07:17.684Z,4.42
2023-03-01T21:09:49.901Z,4.46
2023-03-01T21:12:22.071Z,4.42
2023-03-01T21:14:54.156Z,4.43
2023-03-01T21:17:26.328Z,4.37
2023-03-01T21:19:58.497Z,4.38
2023-03-01T21:22:33.006Z,4.34
2023-03-01T21:25:05.514Z,4.31
2023-03-01T21:27:38.592Z,4.27
2023-03-01T21:30:11.826Z,4.31
2023-03-01T21:32:43.904Z,4.16
2023-03-01T21:35:16.173Z,4.16
2023-03-01T21:37:48.357Z,4.11
2023-03-01T21:40:20.399Z,4.02
2023-03-01T21:42:52.419Z,3.95
2023-03-01T21:45:25.003Z,3.86
2023-03-01T21:47:57.315Z,3.86
2023-03-01T21:50:30.589Z,3.82
2023-03-01T21:53:05.384Z,3.78
2023-03-01T21:55:37.429Z,3.79
2023-03-01T21:58:09.839Z,3.77
2023-03-01T22:00:44.679Z,3.75
2023-03-01T22:03:17.176Z,3.72
2023-03-01T22:05:57.719Z,3.71
2023-03-01T22:08:29.973Z,3.67
2023-03-01T22:11:02.991Z,3.61
2023-03-01T22:13:35.060Z,3.60
2023-03-01T22:16:07.992Z,3.58
2023-03-01T22:18:40.126Z,3.53
2023-03-01T22:21:12.863Z,3.52
2023-03-01T22:23:45.313Z,3.50
2023-03-01T22:26:28.760Z,3.46
2023-03-01T22:29:06.340Z,3.40
2023-03-01T22:31:39.434Z,3.42
2023-03-01T22:34:12.654Z,3.45
2023-03-01T22:36:45.340Z,3.44
2023-03-01T22:39:20.061Z,3.41
2023-03-01T22:41:54.792Z,3.41
2023-03-01T22:44:26.812Z,3.40
2023-03-01T22:46:59.058Z,3.40
2023-03-01T22:49:31.120Z,3.35
2023-03-01T22:52:03.696Z,3.38
2023-03-01T22:54:36.122Z,3.41
2023-03-01T22:57:11.517Z,3.33
2023-03-01T22:59:43.623Z,3.31
2023-03-01T23:02:16.272Z,3.23
2023-03-01T23:04:48.609Z,3.20
2023-03-01T23:07:21.356Z,3.25
2023-03-01T23:09:53.401Z,3.18
2023-03-01T23:12:25.488Z,3.21
2023-03-01T23:14:58.259Z,3.12
2023-03-01T23:17:30.303Z,3.13
2023-03-01T23:20:07.868Z,3.12
2023-03-01T23:22:40.865Z,3.12
2023-03-01T23:25:13.286Z,3.16
2023-03-01T23:27:45.368Z,3.09
2023-03-01T23:30:17.483Z,3.12
2023-03-01T23:32:50.535Z,3.06
2023-03-01T23:35:22.525Z,3.03
2023-03-01T23:37:54.586Z,3.03
2023-03-01T23:40:26.582Z,3.10
2023-03-01T23:42:58.576Z,3.10
2023-03-01T23:45:30.642Z,3.06
2023-03-01T23:48:02.701Z,2.99
2023-03-01T23:50:42.067Z,2.94
2023-03-01T23:53:21.348Z,2.95
2023-03-01T23:55:55.249Z,2.95
2023-03-01T23:58:28.829Z,2.92
